Time,TemperatureF,DewpointF,PressureIn,WindDirection,WindDirectionDegrees,WindSpeedMPH,WindSpeedGustMPH,Humidity,HourlyPrecipIn,Conditions,Clouds,dailyrainin,SoftwareType,DateUTC
2013-07-20 00:01:00,55.0,50.0,-100.00,ESE,116,7.0,9.0,84,0.00,,,-99.99,,2013-07-20 06:01:00,
2013-07-20 00:11:00,55.0,50.0,-100.00,SE,128,5.0,8.0,84,0.00,,,-99.99,,2013-07-20 06:11:00,
2013-07-20 00:21:00,55.0,50.0,-100.00,SE,135,3.0,6.0,84,0.00,,,-99.99,,2013-07-20 06:21:00,
2013-07-20 00:32:00,55.0,50.0,-100.00,SE,126,4.0,7.0,83,0.00,,,-99.99,,2013-07-20 06:32:00,
2013-07-20 00:43:00,55.0,50.0,-100.00,SSE,149,4.0,7.0,83,0.00,,,-99.99,,2013-07-20 06:43:00,
2013-07-20 00:52:00,55.0,49.0,-100.00,SE,127,6.0,10.0,81,0.00,,,-99.99,,2013-07-20 06:52:00,
2013-07-20 01:01:00,55.0,50.0,-100.00,SE,133,7.0,11.0,83,0.00,,,-99.99,,2013-07-20 07:01:00,
2013-07-20 01:12:00,55.0,50.0,-100.00,SE,137,6.0,9.0,84,0.00,,,-99.99,,2013-07-20 07:12:00,
2013-07-20 01:22:00,55.0,51.0,-100.00,SE,135,6.0,8.0,86,0.00,,,-99.99,,2013-07-20 07:22:00,
2013-07-20 01:33:00,55.0,49.0,-100.00,SE,126,4.0,8.0,81,0.00,,,-99.99,,2013-07-20 07:33:00,
2013-07-20 01:44:00,55.0,49.0,-100.00,SE,125,4.0,7.0,79,0.00,,,-99.99,,2013-07-20 07:44:00,
2013-07-20 01:53:00,55.0,49.0,-100.00,ESE,115,5.0,7.0,79,0.00,,,-99.99,,2013-07-20 07:53:00,
2013-07-20 02:01:00,55.0,50.0,-100.00,SE,129,5.0,7.0,83,0.00,,,-99.99,,2013-07-20 08:01:00,
2013-07-20 02:11:00,55.0,49.0,-100.00,ESE,120,4.0,5.0,81,0.00,,,-99.99,,2013-07-20 08:11:00,
2013-07-20 02:22:00,54.0,49.0,-100.00,SE,127,4.0,6.0,84,0.00,,,-99.99,,2013-07-20 08:22:00,
2013-07-20 02:32:00,53.0,49.0,-100.00,SE,131,6.0,8.0,85,0.00,,,-99.99,,2013-07-20 08:32:00,
2013-07-20 02:44:00,53.0,49.0,-100.00,SE,131,6.0,8.0,85,0.00,,,-99.99,,2013-07-20 08:44:00,
2013-07-20 02:52:00,52.0,49.0,-100.00,SE,130,5.0,8.0,91,0.00,,,-99.99,,2013-07-20 08:52:00,
2013-07-20 03:02:00,52.0,49.0,-100.00,SE,133,3.0,5.0,91,0.00,,,-99.99,,2013-07-20 09:02:00,
2013-07-20 03:11:00,52.0,49.0,-100.00,SE,141,3.0,5.0,91,0.00,,,-99.99,,2013-07-20 09:11:00,
2013-07-20 03:22:00,51.0,48.0,-100.00,SE,128,3.0,5.0,91,0.00,,,-99.99,,2013-07-20 09:22:00,
2013-07-20 03:33:00,51.0,48.0,-100.00,SE,126,4.0,6.0,91,0.00,,,-99.99,,2013-07-20 09:33:00,
2013-07-20 03:43:00,50.0,47.0,-100.00,ESE,118,5.0,7.0,91,0.00,,,-99.99,,2013-07-20 09:43:00,
2013-07-20 03:53:00,50.0,48.0,-100.00,SE,128,4.0,6.0,92,0.00,,,-99.99,,2013-07-20 09:53:00,
2013-07-20 04:01:00,49.0,47.0,-100.00,ESE,118,4.0,5.0,92,0.00,,,-99.99,,2013-07-20 10:01:00,
2013-07-20 04:11:00,49.0,47.0,-100.00,ESE,112,4.0,5.0,93,0.00,,,-99.99,,2013-07-20 10:11:00,
2013-07-20 04:21:00,49.0,47.0,-100.00,SE,130,3.0,5.0,93,0.00,,,-99.99,,2013-07-20 10:21:00,
2013-07-20 04:32:00,49.0,47.0,-100.00,SE,128,4.0,6.0,94,0.00,,,-99.99,,2013-07-20 10:32:00,
2013-07-20 04:42:00,48.0,46.0,-100.00,ESE,122,2.0,3.0,93,0.00,,,-99.99,,2013-07-20 10:42:00,
2013-07-20 04:52:00,48.0,46.0,-100.00,ESE,123,2.0,3.0,93,0.00,,,-99.99,,2013-07-20 10:52:00,
2013-07-20 05:01:00,47.0,45.0,-100.00,ESE,120,3.0,5.0,92,0.00,,,-99.99,,2013-07-20 11:01:00,
2013-07-20 05:11:00,47.0,45.0,-100.00,ESE,117,3.0,4.0,94,0.00,,,-99.99,,2013-07-20 11:11:00,
2013-07-20 05:22:00,47.0,46.0,-100.00,ESE,122,3.0,4.0,95,0.00,,,-99.99,,2013-07-20 11:22:00,
2013-07-20 05:32:00,47.0,45.0,-100.00,SE,128,3.0,4.0,93,0.00,,,-99.99,,2013-07-20 11:32:00,
2013-07-20 05:43:00,47.0,46.0,-100.00,SE,124,4.0,7.0,95,0.00,,,-99.99,,2013-07-20 11:43:00,
2013-07-20 05:52:00,47.0,46.0,-100.00,ESE,123,4.0,5.0,95,0.00,,,-99.99,,2013-07-20 11:52:00,
2013-07-20 06:01:00,46.0,44.0,-100.00,ESE,112,4.0,6.0,94,0.00,,,-99.99,,2013-07-20 12:01:00,
2013-07-20 06:11:00,46.0,44.0,-100.00,SE,132,4.0,5.0,94,0.00,,,-99.99,,2013-07-20 12:11:00,
2013-07-20 06:22:00,46.0,45.0,-100.00,ESE,121,3.0,5.0,96,0.00,,,-99.99,,2013-07-20 12:22:00,
2013-07-20 06:32:00,46.0,45.0,-100.00,ESE,121,3.0,5.0,96,0.00,,,-99.99,,2013-07-20 12:32:00,
2013-07-20 06:52:00,47.0,46.0,-100.00,ESE,123,5.0,8.0,97,0.00,,,-99.99,,2013-07-20 12:52:00,
2013-07-20 07:01:00,48.0,46.0,-100.00,ESE,117,5.0,6.0,94,0.00,,,-99.99,,2013-07-20 13:01:00,
2013-07-20 07:11:00,50.0,49.0,-100.00,ESE,121,4.0,7.0,95,0.00,,,-99.99,,2013-07-20 13:11:00,
2013-07-20 07:22:00,51.0,49.0,-100.00,ESE,121,4.0,5.0,94,0.00,,,-99.99,,2013-07-20 13:22:00,
2013-07-20 07:32:00,51.0,49.0,-100.00,ESE,115,4.0,6.0,93,0.00,,,-99.99,,2013-07-20 13:32:00,
2013-07-20 07:43:00,51.0,49.0,-100.00,ESE,115,4.0,6.0,93,0.00,,,-99.99,,2013-07-20 13:43:00,
2013-07-20 07:53:00,51.0,49.0,-100.00,ESE,115,4.0,6.0,93,0.00,,,-99.99,,2013-07-20 13:53:00,
2013-07-20 08:02:00,51.0,49.0,-100.00,ESE,115,4.0,6.0,93,0.00,,,-99.99,,2013-07-20 14:02:00,
2013-07-20 08:32:00,60.0,53.0,-100.00,SE,133,2.0,4.0,78,0.00,,,-99.99,,2013-07-20 14:32:00,
2013-07-20 08:43:00,61.0,54.0,-100.00,SE,132,3.0,4.0,77,0.00,,,-99.99,,2013-07-20 14:43:00,
2013-07-20 08:53:00,62.0,53.0,-100.00,SE,129,3.0,5.0,72,0.00,,,-99.99,,2013-07-20 14:53:00,
2013-07-20 09:01:00,63.0,52.0,-100.00,SE,133,3.0,5.0,68,0.00,,,-99.99,,2013-07-20 15:01:00,
2013-07-20 09:22:00,64.0,53.0,-100.00,SE,134,2.0,4.0,67,0.00,,,-99.99,,2013-07-20 15:22:00,
2013-07-20 09:33:00,67.0,54.0,-100.00,WNW,298,1.0,2.0,63,0.00,,,-99.99,,2013-07-20 15:33:00,
2013-07-20 09:52:00,69.0,55.0,-100.00,NW,313,3.0,6.0,61,0.00,,,-99.99,,2013-07-20 15:52:00,
2013-07-20 10:01:00,70.0,52.0,-100.00,NW,325,5.0,8.0,52,0.00,,,-99.99,,2013-07-20 16:01:00,
2013-07-20 10:11:00,70.0,55.0,-100.00,NW,312,4.0,6.0,58,0.00,,,-99.99,,2013-07-20 16:11:00,
2013-07-20 10:22:00,71.0,55.0,-100.00,NW,321,5.0,8.0,57,0.00,,,-99.99,,2013-07-20 16:22:00,
2013-07-20 10:32:00,72.0,54.0,-100.00,NW,312,5.0,7.0,54,0.00,,,-99.99,,2013-07-20 16:32:00,
2013-07-20 10:43:00,72.0,53.0,-100.00,NW,318,3.0,6.0,51,0.00,,,-99.99,,2013-07-20 16:43:00,
2013-07-20 10:52:00,74.0,55.0,-100.00,NW,307,4.0,8.0,51,0.00,,,-99.99,,2013-07-20 16:52:00,
2013-07-20 11:02:00,75.0,51.0,-100.00,NW,315,6.0,9.0,43,0.00,,,-99.99,,2013-07-20 17:02:00,
2013-07-20 11:11:00,75.0,47.0,-100.00,NW,313,8.0,12.0,37,0.00,,,-99.99,,2013-07-20 17:11:00,
2013-07-20 11:43:00,76.0,50.0,-100.00,NW,325,11.0,16.0,40,0.00,,,-99.99,,2013-07-20 17:43:00,
2013-07-20 12:11:00,77.0,49.0,-100.00,NNW,332,11.0,19.0,37,0.00,,,-99.99,,2013-07-20 18:11:00,
2013-07-20 12:55:00,78.0,45.0,-100.00,NW,316,11.0,20.0,31,0.00,,,-99.99,,2013-07-20 18:55:00,
2013-07-20 13:04:00,75.0,43.0,-100.00,NNW,327,8.0,12.0,32,0.00,,,-99.99,,2013-07-20 19:04:00,
2013-07-20 13:14:00,74.0,39.0,-100.00,NNW,335,6.0,11.0,28,0.00,,,-99.99,,2013-07-20 19:14:00,
2013-07-20 13:23:00,75.0,42.0,-100.00,NW,319,8.0,14.0,31,0.00,,,-99.99,,2013-07-20 19:23:00,
2013-07-20 13:33:00,77.0,42.0,-100.00,NNW,327,6.0,15.0,29,0.00,,,-99.99,,2013-07-20 19:33:00,
2013-07-20 13:43:00,79.0,47.0,-100.00,NW,313,8.0,12.0,32,0.00,,,-99.99,,2013-07-20 19:43:00,
2013-07-20 13:53:00,80.0,37.0,-100.00,NNW,330,11.0,15.0,21,0.00,,,-99.99,,2013-07-20 19:53:00,
2013-07-20 16:15:00,81.0,41.0,-100.00,NW,326,11.0,21.0,24,0.00,,,-99.99,,2013-07-20 22:15:00,
2013-07-20 17:36:00,79.0,42.0,-100.00,NW,324,11.0,17.0,27,0.00,,,-99.99,,2013-07-20 23:36:00,
2013-07-20 18:55:00,73.0,42.0,-100.00,NW,325,9.0,14.0,33,0.00,,,-99.99,,2013-07-21 00:55:00,
2013-07-20 19:11:00,74.0,45.0,-100.00,NNW,329,8.0,12.0,35,0.00,,,-99.99,,2013-07-21 01:11:00,
2013-07-20 19:35:00,69.0,43.0,-100.00,NNW,330,4.0,6.0,39,0.00,,,-99.99,,2013-07-21 01:35:00,
2013-07-20 20:24:00,71.0,46.0,-100.00,NNW,330,1.0,3.0,41,0.00,,,-99.99,,2013-07-21 02:24:00,
2013-07-20 20:35:00,66.0,44.0,-100.00,NW,324,1.0,2.0,45,0.00,,,-99.99,,2013-07-21 02:35:00,
2013-07-20 20:43:00,65.0,42.0,-100.00,NNW,337,1.0,1.0,43,0.00,,,-99.99,,2013-07-21 02:43:00,
2013-07-20 20:54:00,63.0,42.0,-100.00,SSW,197,0.0,1.0,46,0.00,,,-99.99,,2013-07-21 02:54:00,
2013-07-20 21:03:00,61.0,42.0,-100.00,ESE,113,0.0,0.0,49,0.00,,,-99.99,,2013-07-21 03:03:00,
2013-07-20 21:14:00,61.0,40.0,-100.00,ESE,112,3.0,6.0,45,0.00,,,-99.99,,2013-07-21 03:14:00,
2013-07-20 21:24:00,61.0,44.0,-100.00,ESE,112,4.0,5.0,54,0.00,,,-99.99,,2013-07-21 03:24:00,
2013-07-20 21:33:00,61.0,43.0,-100.00,ESE,112,4.0,7.0,52,0.00,,,-99.99,,2013-07-21 03:33:00,
2013-07-20 21:44:00,60.0,43.0,-100.00,ESE,120,4.0,5.0,54,0.00,,,-99.99,,2013-07-21 03:44:00,
2013-07-20 21:54:00,59.0,43.0,-100.00,ESE,113,3.0,4.0,56,0.00,,,-99.99,,2013-07-21 03:54:00,
2013-07-20 22:01:00,59.0,38.0,-100.00,ESE,112,2.0,5.0,46,0.00,,,-99.99,,2013-07-21 04:01:00,
2013-07-20 22:11:00,58.0,40.0,-100.00,ESE,115,3.0,5.0,51,0.00,,,-99.99,,2013-07-21 04:11:00,
2013-07-20 22:22:00,57.0,43.0,-100.00,ESE,110,4.0,6.0,59,0.00,,,-99.99,,2013-07-21 04:22:00,
2013-07-20 22:32:00,57.0,42.0,-100.00,SE,125,3.0,5.0,58,0.00,,,-99.99,,2013-07-21 04:32:00,
2013-07-20 22:43:00,57.0,43.0,-100.00,ESE,113,5.0,7.0,59,0.00,,,-99.99,,2013-07-21 04:43:00,
2013-07-20 22:53:00,57.0,43.0,-100.00,SE,132,5.0,7.0,59,0.00,,,-99.99,,2013-07-21 04:53:00,
2013-07-20 23:02:00,57.0,45.0,-100.00,SE,128,4.0,6.0,64,0.00,,,-99.99,,2013-07-21 05:02:00,
2013-07-20 23:11:00,55.0,43.0,-100.00,SE,126,5.0,8.0,64,0.00,,,-99.99,,2013-07-21 05:11:00,
2013-07-20 23:22:00,55.0,44.0,-100.00,ESE,119,3.0,5.0,66,0.00,,,-99.99,,2013-07-21 05:22:00,
2013-07-20 23:32:00,55.0,43.0,-100.00,ESE,123,4.0,6.0,64,0.00,,,-99.99,,2013-07-21 05:32:00,
2013-07-20 23:42:00,55.0,41.0,-100.00,ESE,116,3.0,5.0,58,0.00,,,-99.99,,2013-07-21 05:42:00,
2013-07-20 23:52:00,55.0,41.0,-100.00,ESE,115,4.0,5.0,58,0.00,,,-99.99,,2013-07-21 05:52:00,